<?xml version="1.0" encoding="UTF-8" standalone="no" ?>
<gpx xmlns="http://www.topografix.com/GPX/1/1" xmlns:xsi="http://www.w3.org/2001/XMLSchema-instance" xsi:schemaLocation="http://www.topografix.com/GPX/1/1 http://www.topografix.com/GPX/1/1/gpx.xsd" version="1.1" creator="VisuGPX - https://www.visugpx.com">
  <metadata>
    <name>Rock d\'arguille, combe du giclas</name>
    <desc><![CDATA[15 Février 2015
Ski de randonnée
Rock d\'arguille, combe du giclas]]></desc>
  </metadata>
  <trk>
    <name><![CDATA[2015-02-15 09:17]]></name>
    <desc><![CDATA[<h1>OruxMaps</h1><br /><hr align="center" width="480" style="height: 2px; width: 517px"/><h2>Nom: 2015-02-15 09:17</h2><br /><p>Temps de départ: 02/15/2015 09:17</p><p>Temps d'arrivée: 02/15/2015 14:56</p><p>Distance: 8,2km (05:38)</p><p>Temps déplacement: 02:03</p><p>Vitesse moyenne: 1,5km/h</p><p>Vitesse moyenne: 4km/h</p><p>Vitess Max.: 32,2km/h</p><p>Altitude minimale: 895m</p><p>Altitude maximale: 1644m</p><p>Vitesse d'élévation: 200,9m/h</p><p>Vitesse de descente: -804,4m/h</p><p>Gain Altitude: 890m</p><p>Perte Altitude: -873m</p><p>Temps d'élévation: 04:25</p><p>Temps de descente: 01:05</p><hr align="center" width="480" style="height: 2px; width: 517px"/>]]></desc>
    <trkseg>
      <trkpt lat="45.33582" lon="5.81372">
        <ele>909.85</ele>
        <time>2015-02-15T08:17:32Z</time>
      </trkpt>
      <trkpt lat="45.33601" lon="5.8137">
        <ele>911.75</ele>
        <time>2015-02-15T08:27:23Z</time>
      </trkpt>
      <trkpt lat="45.33615" lon="5.81387">
        <ele>916.88</ele>
        <time>2015-02-15T08:29:57Z</time>
      </trkpt>
      <trkpt lat="45.33613" lon="5.81413">
        <ele>916.88</ele>
        <time>2015-02-15T08:30:21Z</time>
      </trkpt>
      <trkpt lat="45.33613" lon="5.81439">
        <ele>917.63</ele>
        <time>2015-02-15T08:30:45Z</time>
      </trkpt>
      <trkpt lat="45.33616" lon="5.81464">
        <ele>921.56</ele>
        <time>2015-02-15T08:32:12Z</time>
      </trkpt>
      <trkpt lat="45.33613" lon="5.8149">
        <ele>926.08</ele>
        <time>2015-02-15T08:32:40Z</time>
      </trkpt>
      <trkpt lat="45.33604" lon="5.81513">
        <ele>927.47</ele>
        <time>2015-02-15T08:33:07Z</time>
      </trkpt>
      <trkpt lat="45.33596" lon="5.81536">
        <ele>929</ele>
        <time>2015-02-15T08:33:33Z</time>
      </trkpt>
      <trkpt lat="45.33578" lon="5.81546">
        <ele>927.18</ele>
        <time>2015-02-15T08:34:00Z</time>
      </trkpt>
      <trkpt lat="45.3356" lon="5.81545">
        <ele>928.89</ele>
        <time>2015-02-15T08:34:27Z</time>
      </trkpt>
      <trkpt lat="45.33542" lon="5.81546">
        <ele>931.63</ele>
        <time>2015-02-15T08:34:58Z</time>
      </trkpt>
      <trkpt lat="45.33524" lon="5.81541">
        <ele>936.86</ele>
        <time>2015-02-15T08:35:30Z</time>
      </trkpt>
      <trkpt lat="45.33506" lon="5.81542">
        <ele>939.84</ele>
        <time>2015-02-15T08:36:12Z</time>
      </trkpt>
      <trkpt lat="45.33505" lon="5.81568">
        <ele>948.81</ele>
        <time>2015-02-15T08:37:44Z</time>
      </trkpt>
      <trkpt lat="45.33514" lon="5.8159">
        <ele>965.04</ele>
        <time>2015-02-15T08:40:14Z</time>
      </trkpt>
      <trkpt lat="45.33523" lon="5.81613">
        <ele>964.75</ele>
        <time>2015-02-15T08:40:51Z</time>
      </trkpt>
      <trkpt lat="45.33528" lon="5.81638">
        <ele>963.09</ele>
        <time>2015-02-15T08:41:30Z</time>
      </trkpt>
      <trkpt lat="45.33511" lon="5.81647">
        <ele>969.11</ele>
        <time>2015-02-15T08:44:04Z</time>
      </trkpt>
      <trkpt lat="45.33497" lon="5.81664">
        <ele>981.25</ele>
        <time>2015-02-15T08:46:46Z</time>
      </trkpt>
      <trkpt lat="45.3349" lon="5.81689">
        <ele>990.15</ele>
        <time>2015-02-15T08:48:13Z</time>
      </trkpt>
      <trkpt lat="45.33486" lon="5.81715">
        <ele>1012</ele>
        <time>2015-02-15T08:53:10Z</time>
      </trkpt>
      <trkpt lat="45.33475" lon="5.81737">
        <ele>1009.88</ele>
        <time>2015-02-15T08:53:59Z</time>
      </trkpt>
      <trkpt lat="45.33457" lon="5.8174">
        <ele>1016.74</ele>
        <time>2015-02-15T08:54:20Z</time>
      </trkpt>
      <trkpt lat="45.33439" lon="5.81732">
        <ele>1017.39</ele>
        <time>2015-02-15T08:54:50Z</time>
      </trkpt>
      <trkpt lat="45.33424" lon="5.8172">
        <ele>1013.93</ele>
        <time>2015-02-15T08:55:22Z</time>
      </trkpt>
      <trkpt lat="45.33409" lon="5.81704">
        <ele>1013.32</ele>
        <time>2015-02-15T08:55:51Z</time>
      </trkpt>
      <trkpt lat="45.33393" lon="5.81691">
        <ele>1015.63</ele>
        <time>2015-02-15T08:56:22Z</time>
      </trkpt>
      <trkpt lat="45.33378" lon="5.81676">
        <ele>1021.39</ele>
        <time>2015-02-15T08:56:50Z</time>
      </trkpt>
      <trkpt lat="45.33361" lon="5.81669">
        <ele>1024.08</ele>
        <time>2015-02-15T08:57:23Z</time>
      </trkpt>
      <trkpt lat="45.33343" lon="5.81665">
        <ele>1024.9</ele>
        <time>2015-02-15T08:57:55Z</time>
      </trkpt>
      <trkpt lat="45.33325" lon="5.81666">
        <ele>1024.6</ele>
        <time>2015-02-15T08:58:14Z</time>
      </trkpt>
      <trkpt lat="45.33307" lon="5.81658">
        <ele>1024.87</ele>
        <time>2015-02-15T08:59:19Z</time>
      </trkpt>
      <trkpt lat="45.33293" lon="5.81641">
        <ele>1031.13</ele>
        <time>2015-02-15T08:59:50Z</time>
      </trkpt>
      <trkpt lat="45.33279" lon="5.81624">
        <ele>1036.13</ele>
        <time>2015-02-15T09:00:11Z</time>
      </trkpt>
      <trkpt lat="45.33263" lon="5.81612">
        <ele>1037.89</ele>
        <time>2015-02-15T09:00:31Z</time>
      </trkpt>
      <trkpt lat="45.33247" lon="5.816">
        <ele>1037.33</ele>
        <time>2015-02-15T09:00:59Z</time>
      </trkpt>
      <trkpt lat="45.3323" lon="5.81589">
        <ele>1038.96</ele>
        <time>2015-02-15T09:01:21Z</time>
      </trkpt>
      <trkpt lat="45.33213" lon="5.81579">
        <ele>1037.63</ele>
        <time>2015-02-15T09:01:44Z</time>
      </trkpt>
      <trkpt lat="45.33196" lon="5.81572">
        <ele>1034.82</ele>
        <time>2015-02-15T09:02:13Z</time>
      </trkpt>
      <trkpt lat="45.33177" lon="5.81567">
        <ele>1040.1</ele>
        <time>2015-02-15T09:02:41Z</time>
      </trkpt>
      <trkpt lat="45.33159" lon="5.81568">
        <ele>1040.08</ele>
        <time>2015-02-15T09:03:10Z</time>
      </trkpt>
      <trkpt lat="45.33141" lon="5.81564">
        <ele>1047.8</ele>
        <time>2015-02-15T09:03:38Z</time>
      </trkpt>
      <trkpt lat="45.33123" lon="5.81555">
        <ele>1051.06</ele>
        <time>2015-02-15T09:04:04Z</time>
      </trkpt>
      <trkpt lat="45.33105" lon="5.81556">
        <ele>1049.94</ele>
        <time>2015-02-15T09:04:31Z</time>
      </trkpt>
      <trkpt lat="45.33087" lon="5.81558">
        <ele>1048.32</ele>
        <time>2015-02-15T09:04:54Z</time>
      </trkpt>
      <trkpt lat="45.33068" lon="5.81557">
        <ele>1046.32</ele>
        <time>2015-02-15T09:05:20Z</time>
      </trkpt>
      <trkpt lat="45.3305" lon="5.81557">
        <ele>1045.13</ele>
        <time>2015-02-15T09:05:45Z</time>
      </trkpt>
      <trkpt lat="45.33032" lon="5.81555">
        <ele>1045.89</ele>
        <time>2015-02-15T09:07:51Z</time>
      </trkpt>
      <trkpt lat="45.33013" lon="5.81555">
        <ele>1046.75</ele>
        <time>2015-02-15T09:08:18Z</time>
      </trkpt>
      <trkpt lat="45.32995" lon="5.81553">
        <ele>1046.52</ele>
        <time>2015-02-15T09:08:48Z</time>
      </trkpt>
      <trkpt lat="45.32976" lon="5.81551">
        <ele>1042.88</ele>
        <time>2015-02-15T09:09:21Z</time>
      </trkpt>
      <trkpt lat="45.32992" lon="5.81561">
        <ele>1055.84</ele>
        <time>2015-02-15T09:10:59Z</time>
      </trkpt>
      <trkpt lat="45.3301" lon="5.81569">
        <ele>1060.51</ele>
        <time>2015-02-15T09:11:28Z</time>
      </trkpt>
      <trkpt lat="45.33027" lon="5.81579">
        <ele>1062.31</ele>
        <time>2015-02-15T09:11:54Z</time>
      </trkpt>
      <trkpt lat="45.33045" lon="5.81587">
        <ele>1066.63</ele>
        <time>2015-02-15T09:12:26Z</time>
      </trkpt>
      <trkpt lat="45.33061" lon="5.816">
        <ele>1066.94</ele>
        <time>2015-02-15T09:13:04Z</time>
      </trkpt>
      <trkpt lat="45.33076" lon="5.81616">
        <ele>1068.39</ele>
        <time>2015-02-15T09:13:44Z</time>
      </trkpt>
      <trkpt lat="45.33092" lon="5.81628">
        <ele>1070.9</ele>
        <time>2015-02-15T09:14:19Z</time>
      </trkpt>
      <trkpt lat="45.3311" lon="5.81636">
        <ele>1071.63</ele>
        <time>2015-02-15T09:14:53Z</time>
      </trkpt>
      <trkpt lat="45.33127" lon="5.81645">
        <ele>1075.29</ele>
        <time>2015-02-15T09:15:21Z</time>
      </trkpt>
      <trkpt lat="45.33145" lon="5.81653">
        <ele>1077.39</ele>
        <time>2015-02-15T09:15:49Z</time>
      </trkpt>
      <trkpt lat="45.33163" lon="5.81655">
        <ele>1087.58</ele>
        <time>2015-02-15T09:16:11Z</time>
      </trkpt>
      <trkpt lat="45.33179" lon="5.81667">
        <ele>1088.99</ele>
        <time>2015-02-15T09:16:55Z</time>
      </trkpt>
      <trkpt lat="45.33196" lon="5.81679">
        <ele>1089</ele>
        <time>2015-02-15T09:17:32Z</time>
      </trkpt>
      <trkpt lat="45.33212" lon="5.81691">
        <ele>1084.26</ele>
        <time>2015-02-15T09:17:56Z</time>
      </trkpt>
      <trkpt lat="45.3323" lon="5.81697">
        <ele>1087.71</ele>
        <time>2015-02-15T09:18:22Z</time>
      </trkpt>
      <trkpt lat="45.33247" lon="5.81709">
        <ele>1087.22</ele>
        <time>2015-02-15T09:18:42Z</time>
      </trkpt>
      <trkpt lat="45.33264" lon="5.81719">
        <ele>1084.38</ele>
        <time>2015-02-15T09:19:09Z</time>
      </trkpt>
      <trkpt lat="45.3328" lon="5.81734">
        <ele>1086.35</ele>
        <time>2015-02-15T09:19:32Z</time>
      </trkpt>
      <trkpt lat="45.33296" lon="5.81745">
        <ele>1089.81</ele>
        <time>2015-02-15T09:20:05Z</time>
      </trkpt>
      <trkpt lat="45.33311" lon="5.81761">
        <ele>1085.93</ele>
        <time>2015-02-15T09:20:29Z</time>
      </trkpt>
      <trkpt lat="45.33324" lon="5.81779">
        <ele>1087.02</ele>
        <time>2015-02-15T09:20:57Z</time>
      </trkpt>
      <trkpt lat="45.3334" lon="5.81794">
        <ele>1088.63</ele>
        <time>2015-02-15T09:21:39Z</time>
      </trkpt>
      <trkpt lat="45.3335" lon="5.81816">
        <ele>1084.76</ele>
        <time>2015-02-15T09:22:10Z</time>
      </trkpt>
      <trkpt lat="45.33364" lon="5.81833">
        <ele>1086.22</ele>
        <time>2015-02-15T09:22:38Z</time>
      </trkpt>
      <trkpt lat="45.33379" lon="5.81848">
        <ele>1091.07</ele>
        <time>2015-02-15T09:23:01Z</time>
      </trkpt>
      <trkpt lat="45.33395" lon="5.81864">
        <ele>1095.38</ele>
        <time>2015-02-15T09:23:40Z</time>
      </trkpt>
      <trkpt lat="45.33402" lon="5.81887">
        <ele>1078.56</ele>
        <time>2015-02-15T09:23:59Z</time>
      </trkpt>
      <trkpt lat="45.33408" lon="5.81911">
        <ele>1076.6</ele>
        <time>2015-02-15T09:24:27Z</time>
      </trkpt>
      <trkpt lat="45.33414" lon="5.81937">
        <ele>1083.37</ele>
        <time>2015-02-15T09:25:03Z</time>
      </trkpt>
      <trkpt lat="45.33396" lon="5.81941">
        <ele>1099.79</ele>
        <time>2015-02-15T09:27:14Z</time>
      </trkpt>
      <trkpt lat="45.33377" lon="5.81935">
        <ele>1105.69</ele>
        <time>2015-02-15T09:27:57Z</time>
      </trkpt>
      <trkpt lat="45.33361" lon="5.81925">
        <ele>1110.33</ele>
        <time>2015-02-15T09:29:09Z</time>
      </trkpt>
      <trkpt lat="45.33346" lon="5.8191">
        <ele>1117.89</ele>
        <time>2015-02-15T09:29:53Z</time>
      </trkpt>
      <trkpt lat="45.33346" lon="5.81936">
        <ele>1128.89</ele>
        <time>2015-02-15T09:31:34Z</time>
      </trkpt>
      <trkpt lat="45.33348" lon="5.81962">
        <ele>1128.84</ele>
        <time>2015-02-15T09:32:09Z</time>
      </trkpt>
      <trkpt lat="45.33351" lon="5.81987">
        <ele>1136.35</ele>
        <time>2015-02-15T09:32:49Z</time>
      </trkpt>
      <trkpt lat="45.33334" lon="5.81997">
        <ele>1145.87</ele>
        <time>2015-02-15T09:33:58Z</time>
      </trkpt>
      <trkpt lat="45.33318" lon="5.81983">
        <ele>1147.9</ele>
        <time>2015-02-15T09:34:33Z</time>
      </trkpt>
      <trkpt lat="45.33302" lon="5.81969">
        <ele>1148.54</ele>
        <time>2015-02-15T09:35:06Z</time>
      </trkpt>
      <trkpt lat="45.33284" lon="5.81967">
        <ele>1173.15</ele>
        <time>2015-02-15T09:40:11Z</time>
      </trkpt>
      <trkpt lat="45.33295" lon="5.81987">
        <ele>1176</ele>
        <time>2015-02-15T09:40:58Z</time>
      </trkpt>
      <trkpt lat="45.33279" lon="5.81998">
        <ele>1171.88</ele>
        <time>2015-02-15T09:41:37Z</time>
      </trkpt>
      <trkpt lat="45.33284" lon="5.82023">
        <ele>1183.63</ele>
        <time>2015-02-15T09:43:23Z</time>
      </trkpt>
      <trkpt lat="45.33282" lon="5.82049">
        <ele>1182.83</ele>
        <time>2015-02-15T09:44:10Z</time>
      </trkpt>
      <trkpt lat="45.3329" lon="5.82071">
        <ele>1186.87</ele>
        <time>2015-02-15T09:44:37Z</time>
      </trkpt>
      <trkpt lat="45.33274" lon="5.82083">
        <ele>1198.37</ele>
        <time>2015-02-15T09:45:45Z</time>
      </trkpt>
      <trkpt lat="45.33257" lon="5.82093">
        <ele>1205.38</ele>
        <time>2015-02-15T09:48:34Z</time>
      </trkpt>
      <trkpt lat="45.33248" lon="5.8207">
        <ele>1208.07</ele>
        <time>2015-02-15T09:55:28Z</time>
      </trkpt>
      <trkpt lat="45.33235" lon="5.82052">
        <ele>1211.59</ele>
        <time>2015-02-15T09:55:57Z</time>
      </trkpt>
      <trkpt lat="45.33219" lon="5.8204">
        <ele>1211.88</ele>
        <time>2015-02-15T09:56:24Z</time>
      </trkpt>
      <trkpt lat="45.33201" lon="5.82032">
        <ele>1214.27</ele>
        <time>2015-02-15T09:57:00Z</time>
      </trkpt>
      <trkpt lat="45.33183" lon="5.82028">
        <ele>1216.27</ele>
        <time>2015-02-15T09:57:34Z</time>
      </trkpt>
      <trkpt lat="45.33165" lon="5.82022">
        <ele>1218.93</ele>
        <time>2015-02-15T09:57:59Z</time>
      </trkpt>
      <trkpt lat="45.33148" lon="5.82014">
        <ele>1218.63</ele>
        <time>2015-02-15T09:58:24Z</time>
      </trkpt>
      <trkpt lat="45.33134" lon="5.81997">
        <ele>1224.48</ele>
        <time>2015-02-15T09:58:54Z</time>
      </trkpt>
      <trkpt lat="45.33117" lon="5.81985">
        <ele>1226.5</ele>
        <time>2015-02-15T09:59:36Z</time>
      </trkpt>
      <trkpt lat="45.33107" lon="5.82008">
        <ele>1228.4</ele>
        <time>2015-02-15T10:01:41Z</time>
      </trkpt>
      <trkpt lat="45.331" lon="5.82032">
        <ele>1231.82</ele>
        <time>2015-02-15T10:02:06Z</time>
      </trkpt>
      <trkpt lat="45.33088" lon="5.82051">
        <ele>1234</ele>
        <time>2015-02-15T10:02:28Z</time>
      </trkpt>
      <trkpt lat="45.33071" lon="5.82039">
        <ele>1247.88</ele>
        <time>2015-02-15T10:03:24Z</time>
      </trkpt>
      <trkpt lat="45.33053" lon="5.82039">
        <ele>1243.88</ele>
        <time>2015-02-15T10:04:07Z</time>
      </trkpt>
      <trkpt lat="45.33042" lon="5.82061">
        <ele>1246.38</ele>
        <time>2015-02-15T10:04:49Z</time>
      </trkpt>
      <trkpt lat="45.33033" lon="5.82083">
        <ele>1252.77</ele>
        <time>2015-02-15T10:05:19Z</time>
      </trkpt>
      <trkpt lat="45.33023" lon="5.82105">
        <ele>1252.36</ele>
        <time>2015-02-15T10:05:51Z</time>
      </trkpt>
      <trkpt lat="45.33017" lon="5.82129">
        <ele>1260.82</ele>
        <time>2015-02-15T10:06:38Z</time>
      </trkpt>
      <trkpt lat="45.33023" lon="5.82153">
        <ele>1265.63</ele>
        <time>2015-02-15T10:07:27Z</time>
      </trkpt>
      <trkpt lat="45.33016" lon="5.82178">
        <ele>1264.63</ele>
        <time>2015-02-15T10:08:21Z</time>
      </trkpt>
      <trkpt lat="45.33003" lon="5.82196">
        <ele>1275.25</ele>
        <time>2015-02-15T10:10:08Z</time>
      </trkpt>
      <trkpt lat="45.32984" lon="5.82202">
        <ele>1284.38</ele>
        <time>2015-02-15T10:10:50Z</time>
      </trkpt>
      <trkpt lat="45.32967" lon="5.82213">
        <ele>1285.16</ele>
        <time>2015-02-15T10:11:31Z</time>
      </trkpt>
      <trkpt lat="45.32953" lon="5.8223">
        <ele>1289.86</ele>
        <time>2015-02-15T10:12:48Z</time>
      </trkpt>
      <trkpt lat="45.32947" lon="5.82255">
        <ele>1293.58</ele>
        <time>2015-02-15T10:14:00Z</time>
      </trkpt>
      <trkpt lat="45.32933" lon="5.82272">
        <ele>1299.31</ele>
        <time>2015-02-15T10:14:42Z</time>
      </trkpt>
      <trkpt lat="45.32926" lon="5.82296">
        <ele>1308.97</ele>
        <time>2015-02-15T10:15:55Z</time>
      </trkpt>
      <trkpt lat="45.32921" lon="5.82321">
        <ele>1317.87</ele>
        <time>2015-02-15T10:16:58Z</time>
      </trkpt>
      <trkpt lat="45.32911" lon="5.82343">
        <ele>1329.06</ele>
        <time>2015-02-15T10:18:12Z</time>
      </trkpt>
      <trkpt lat="45.32916" lon="5.82368">
        <ele>1334.66</ele>
        <time>2015-02-15T10:19:05Z</time>
      </trkpt>
      <trkpt lat="45.32906" lon="5.82389">
        <ele>1343.44</ele>
        <time>2015-02-15T10:21:33Z</time>
      </trkpt>
      <trkpt lat="45.32904" lon="5.82415">
        <ele>1341.42</ele>
        <time>2015-02-15T10:23:37Z</time>
      </trkpt>
      <trkpt lat="45.32889" lon="5.8243">
        <ele>1346.24</ele>
        <time>2015-02-15T10:24:44Z</time>
      </trkpt>
      <trkpt lat="45.32873" lon="5.82441">
        <ele>1343.88</ele>
        <time>2015-02-15T10:25:13Z</time>
      </trkpt>
      <trkpt lat="45.32869" lon="5.82466">
        <ele>1368.87</ele>
        <time>2015-02-15T10:26:51Z</time>
      </trkpt>
      <trkpt lat="45.32854" lon="5.82481">
        <ele>1379.81</ele>
        <time>2015-02-15T10:27:52Z</time>
      </trkpt>
      <trkpt lat="45.32837" lon="5.82488">
        <ele>1376.88</ele>
        <time>2015-02-15T10:33:48Z</time>
      </trkpt>
      <trkpt lat="45.32819" lon="5.82488">
        <ele>1376.24</ele>
        <time>2015-02-15T10:34:41Z</time>
      </trkpt>
      <trkpt lat="45.3282" lon="5.82514">
        <ele>1384.07</ele>
        <time>2015-02-15T10:36:52Z</time>
      </trkpt>
      <trkpt lat="45.32801" lon="5.82519">
        <ele>1392.9</ele>
        <time>2015-02-15T10:49:16Z</time>
      </trkpt>
      <trkpt lat="45.32785" lon="5.82506">
        <ele>1389.38</ele>
        <time>2015-02-15T10:49:56Z</time>
      </trkpt>
      <trkpt lat="45.32768" lon="5.825">
        <ele>1385.26</ele>
        <time>2015-02-15T10:50:21Z</time>
      </trkpt>
      <trkpt lat="45.32749" lon="5.82496">
        <ele>1383.89</ele>
        <time>2015-02-15T10:50:57Z</time>
      </trkpt>
      <trkpt lat="45.32731" lon="5.82494">
        <ele>1388.69</ele>
        <time>2015-02-15T10:51:25Z</time>
      </trkpt>
      <trkpt lat="45.32712" lon="5.82497">
        <ele>1388.27</ele>
        <time>2015-02-15T10:51:55Z</time>
      </trkpt>
      <trkpt lat="45.32694" lon="5.8251">
        <ele>1384.77</ele>
        <time>2015-02-15T10:52:36Z</time>
      </trkpt>
      <trkpt lat="45.32677" lon="5.82518">
        <ele>1388.72</ele>
        <time>2015-02-15T10:53:05Z</time>
      </trkpt>
      <trkpt lat="45.32664" lon="5.82538">
        <ele>1399.88</ele>
        <time>2015-02-15T10:54:32Z</time>
      </trkpt>
      <trkpt lat="45.32648" lon="5.82551">
        <ele>1399.73</ele>
        <time>2015-02-15T10:54:52Z</time>
      </trkpt>
      <trkpt lat="45.32634" lon="5.82568">
        <ele>1407.14</ele>
        <time>2015-02-15T10:56:05Z</time>
      </trkpt>
      <trkpt lat="45.32617" lon="5.82577">
        <ele>1417.87</ele>
        <time>2015-02-15T10:57:55Z</time>
      </trkpt>
      <trkpt lat="45.326" lon="5.82587">
        <ele>1425.88</ele>
        <time>2015-02-15T10:58:26Z</time>
      </trkpt>
      <trkpt lat="45.32594" lon="5.82611">
        <ele>1434.86</ele>
        <time>2015-02-15T10:59:44Z</time>
      </trkpt>
      <trkpt lat="45.32598" lon="5.82636">
        <ele>1440.37</ele>
        <time>2015-02-15T11:00:39Z</time>
      </trkpt>
      <trkpt lat="45.3261" lon="5.82656">
        <ele>1449.98</ele>
        <time>2015-02-15T11:01:16Z</time>
      </trkpt>
      <trkpt lat="45.32607" lon="5.82682">
        <ele>1450.37</ele>
        <time>2015-02-15T11:02:09Z</time>
      </trkpt>
      <trkpt lat="45.32591" lon="5.82695">
        <ele>1458.13</ele>
        <time>2015-02-15T11:02:38Z</time>
      </trkpt>
      <trkpt lat="45.32585" lon="5.8272">
        <ele>1468.93</ele>
        <time>2015-02-15T11:03:58Z</time>
      </trkpt>
      <trkpt lat="45.32578" lon="5.82744">
        <ele>1477.81</ele>
        <time>2015-02-15T11:04:41Z</time>
      </trkpt>
      <trkpt lat="45.32563" lon="5.8276">
        <ele>1483.03</ele>
        <time>2015-02-15T11:05:38Z</time>
      </trkpt>
      <trkpt lat="45.32546" lon="5.82771">
        <ele>1484.19</ele>
        <time>2015-02-15T11:06:20Z</time>
      </trkpt>
      <trkpt lat="45.32542" lon="5.82796">
        <ele>1494.62</ele>
        <time>2015-02-15T11:07:58Z</time>
      </trkpt>
      <trkpt lat="45.32524" lon="5.82793">
        <ele>1488.38</ele>
        <time>2015-02-15T11:15:27Z</time>
      </trkpt>
      <trkpt lat="45.32507" lon="5.82806">
        <ele>1488.31</ele>
        <time>2015-02-15T11:15:48Z</time>
      </trkpt>
      <trkpt lat="45.3249" lon="5.82823">
        <ele>1484.5</ele>
        <time>2015-02-15T11:16:07Z</time>
      </trkpt>
      <trkpt lat="45.32475" lon="5.82841">
        <ele>1488.33</ele>
        <time>2015-02-15T11:16:24Z</time>
      </trkpt>
      <trkpt lat="45.32458" lon="5.8285">
        <ele>1482.84</ele>
        <time>2015-02-15T11:17:56Z</time>
      </trkpt>
      <trkpt lat="45.32441" lon="5.82856">
        <ele>1480.42</ele>
        <time>2015-02-15T11:18:23Z</time>
      </trkpt>
      <trkpt lat="45.32428" lon="5.82875">
        <ele>1484.83</ele>
        <time>2015-02-15T11:18:52Z</time>
      </trkpt>
      <trkpt lat="45.32414" lon="5.82892">
        <ele>1495.74</ele>
        <time>2015-02-15T11:19:55Z</time>
      </trkpt>
      <trkpt lat="45.32403" lon="5.82913">
        <ele>1496.62</ele>
        <time>2015-02-15T11:20:32Z</time>
      </trkpt>
      <trkpt lat="45.32388" lon="5.82926">
        <ele>1497.87</ele>
        <time>2015-02-15T11:21:18Z</time>
      </trkpt>
      <trkpt lat="45.32371" lon="5.82938">
        <ele>1501.66</ele>
        <time>2015-02-15T11:21:59Z</time>
      </trkpt>
      <trkpt lat="45.32353" lon="5.82944">
        <ele>1505.39</ele>
        <time>2015-02-15T11:22:26Z</time>
      </trkpt>
      <trkpt lat="45.32348" lon="5.82969">
        <ele>1512.63</ele>
        <time>2015-02-15T11:23:41Z</time>
      </trkpt>
      <trkpt lat="45.32331" lon="5.8298">
        <ele>1522.57</ele>
        <time>2015-02-15T11:24:22Z</time>
      </trkpt>
      <trkpt lat="45.32313" lon="5.82983">
        <ele>1525.83</ele>
        <time>2015-02-15T11:24:49Z</time>
      </trkpt>
      <trkpt lat="45.32294" lon="5.82987">
        <ele>1531.18</ele>
        <time>2015-02-15T11:25:36Z</time>
      </trkpt>
      <trkpt lat="45.32276" lon="5.8299">
        <ele>1525.76</ele>
        <time>2015-02-15T11:26:05Z</time>
      </trkpt>
      <trkpt lat="45.32259" lon="5.82998">
        <ele>1523.75</ele>
        <time>2015-02-15T11:26:33Z</time>
      </trkpt>
      <trkpt lat="45.3224" lon="5.83001">
        <ele>1530.6</ele>
        <time>2015-02-15T11:27:02Z</time>
      </trkpt>
      <trkpt lat="45.32223" lon="5.8301">
        <ele>1534.88</ele>
        <time>2015-02-15T11:33:19Z</time>
      </trkpt>
      <trkpt lat="45.3221" lon="5.8303">
        <ele>1537.82</ele>
        <time>2015-02-15T11:38:33Z</time>
      </trkpt>
      <trkpt lat="45.322" lon="5.83052">
        <ele>1541.5</ele>
        <time>2015-02-15T11:39:04Z</time>
      </trkpt>
      <trkpt lat="45.32188" lon="5.83071">
        <ele>1551.13</ele>
        <time>2015-02-15T11:39:45Z</time>
      </trkpt>
      <trkpt lat="45.32181" lon="5.83095">
        <ele>1555.96</ele>
        <time>2015-02-15T11:40:49Z</time>
      </trkpt>
      <trkpt lat="45.32167" lon="5.83112">
        <ele>1557.94</ele>
        <time>2015-02-15T11:42:33Z</time>
      </trkpt>
      <trkpt lat="45.32155" lon="5.83132">
        <ele>1560.57</ele>
        <time>2015-02-15T11:43:55Z</time>
      </trkpt>
      <trkpt lat="45.3214" lon="5.83147">
        <ele>1569.42</ele>
        <time>2015-02-15T11:44:45Z</time>
      </trkpt>
      <trkpt lat="45.32123" lon="5.8315">
        <ele>1573.91</ele>
        <time>2015-02-15T11:45:43Z</time>
      </trkpt>
      <trkpt lat="45.32107" lon="5.83165">
        <ele>1580.02</ele>
        <time>2015-02-15T11:47:20Z</time>
      </trkpt>
      <trkpt lat="45.32096" lon="5.83185">
        <ele>1580.99</ele>
        <time>2015-02-15T11:48:00Z</time>
      </trkpt>
      <trkpt lat="45.32082" lon="5.83202">
        <ele>1578.69</ele>
        <time>2015-02-15T11:51:22Z</time>
      </trkpt>
      <trkpt lat="45.32066" lon="5.83214">
        <ele>1584.38</ele>
        <time>2015-02-15T11:52:38Z</time>
      </trkpt>
      <trkpt lat="45.32049" lon="5.83222">
        <ele>1594.66</ele>
        <time>2015-02-15T11:53:13Z</time>
      </trkpt>
      <trkpt lat="45.32035" lon="5.8324">
        <ele>1601.38</ele>
        <time>2015-02-15T11:54:24Z</time>
      </trkpt>
      <trkpt lat="45.32048" lon="5.83259">
        <ele>1621.64</ele>
        <time>2015-02-15T11:55:52Z</time>
      </trkpt>
      <trkpt lat="45.32065" lon="5.8327">
        <ele>1629.96</ele>
        <time>2015-02-15T11:56:40Z</time>
      </trkpt>
      <trkpt lat="45.32063" lon="5.83296">
        <ele>1628.83</ele>
        <time>2015-02-15T11:57:59Z</time>
      </trkpt>
      <trkpt lat="45.32079" lon="5.83309">
        <ele>1640.59</ele>
        <time>2015-02-15T11:59:52Z</time>
      </trkpt>
      <trkpt lat="45.32097" lon="5.83307">
        <ele>1644.72</ele>
        <time>2015-02-15T12:03:32Z</time>
      </trkpt>
      <trkpt lat="45.32118" lon="5.83311">
        <ele>1638.63</ele>
        <time>2015-02-15T12:43:24Z</time>
      </trkpt>
      <trkpt lat="45.32137" lon="5.8331">
        <ele>1634.62</ele>
        <time>2015-02-15T12:43:29Z</time>
      </trkpt>
      <trkpt lat="45.32145" lon="5.83286">
        <ele>1624.45</ele>
        <time>2015-02-15T12:43:36Z</time>
      </trkpt>
      <trkpt lat="45.32147" lon="5.83258">
        <ele>1616</ele>
        <time>2015-02-15T12:43:42Z</time>
      </trkpt>
      <trkpt lat="45.32143" lon="5.8323">
        <ele>1611.26</ele>
        <time>2015-02-15T12:43:54Z</time>
      </trkpt>
      <trkpt lat="45.32133" lon="5.83204">
        <ele>1596.69</ele>
        <time>2015-02-15T12:47:02Z</time>
      </trkpt>
      <trkpt lat="45.32141" lon="5.83179">
        <ele>1590.63</ele>
        <time>2015-02-15T12:47:32Z</time>
      </trkpt>
      <trkpt lat="45.32161" lon="5.83162">
        <ele>1583.39</ele>
        <time>2015-02-15T12:47:38Z</time>
      </trkpt>
      <trkpt lat="45.3218" lon="5.83153">
        <ele>1568.44</ele>
        <time>2015-02-15T12:47:49Z</time>
      </trkpt>
      <trkpt lat="45.32199" lon="5.83147">
        <ele>1563.63</ele>
        <time>2015-02-15T12:47:56Z</time>
      </trkpt>
      <trkpt lat="45.32206" lon="5.83172">
        <ele>1555.1</ele>
        <time>2015-02-15T12:48:50Z</time>
      </trkpt>
      <trkpt lat="45.32222" lon="5.83183">
        <ele>1542.15</ele>
        <time>2015-02-15T12:49:02Z</time>
      </trkpt>
      <trkpt lat="45.32237" lon="5.83198">
        <ele>1532.85</ele>
        <time>2015-02-15T12:49:20Z</time>
      </trkpt>
      <trkpt lat="45.32253" lon="5.83217">
        <ele>1529.82</ele>
        <time>2015-02-15T12:50:27Z</time>
      </trkpt>
      <trkpt lat="45.32273" lon="5.83209">
        <ele>1514.45</ele>
        <time>2015-02-15T12:50:36Z</time>
      </trkpt>
      <trkpt lat="45.32285" lon="5.8319">
        <ele>1487.88</ele>
        <time>2015-02-15T12:51:24Z</time>
      </trkpt>
      <trkpt lat="45.32302" lon="5.83172">
        <ele>1481.85</ele>
        <time>2015-02-15T12:51:33Z</time>
      </trkpt>
      <trkpt lat="45.32321" lon="5.83183">
        <ele>1477.12</ele>
        <time>2015-02-15T12:51:36Z</time>
      </trkpt>
      <trkpt lat="45.32342" lon="5.83189">
        <ele>1477.05</ele>
        <time>2015-02-15T12:51:48Z</time>
      </trkpt>
      <trkpt lat="45.32361" lon="5.83193">
        <ele>1470.98</ele>
        <time>2015-02-15T12:52:03Z</time>
      </trkpt>
      <trkpt lat="45.32376" lon="5.83176">
        <ele>1463.82</ele>
        <time>2015-02-15T12:53:52Z</time>
      </trkpt>
      <trkpt lat="45.32387" lon="5.83153">
        <ele>1459.19</ele>
        <time>2015-02-15T12:54:31Z</time>
      </trkpt>
      <trkpt lat="45.32403" lon="5.83141">
        <ele>1446.72</ele>
        <time>2015-02-15T12:54:51Z</time>
      </trkpt>
      <trkpt lat="45.3242" lon="5.83151">
        <ele>1430.47</ele>
        <time>2015-02-15T12:55:27Z</time>
      </trkpt>
      <trkpt lat="45.32434" lon="5.83133">
        <ele>1419.64</ele>
        <time>2015-02-15T12:55:52Z</time>
      </trkpt>
      <trkpt lat="45.3244" lon="5.83158">
        <ele>1398.84</ele>
        <time>2015-02-15T12:56:58Z</time>
      </trkpt>
      <trkpt lat="45.32454" lon="5.83177">
        <ele>1387.36</ele>
        <time>2015-02-15T12:57:14Z</time>
      </trkpt>
      <trkpt lat="45.32459" lon="5.83202">
        <ele>1390.13</ele>
        <time>2015-02-15T12:57:35Z</time>
      </trkpt>
      <trkpt lat="45.32474" lon="5.83216">
        <ele>1376.95</ele>
        <time>2015-02-15T12:58:30Z</time>
      </trkpt>
      <trkpt lat="45.32489" lon="5.83231">
        <ele>1366.18</ele>
        <time>2015-02-15T12:58:36Z</time>
      </trkpt>
      <trkpt lat="45.32501" lon="5.83254">
        <ele>1357.18</ele>
        <time>2015-02-15T12:58:42Z</time>
      </trkpt>
      <trkpt lat="45.32519" lon="5.83264">
        <ele>1353.55</ele>
        <time>2015-02-15T12:58:50Z</time>
      </trkpt>
      <trkpt lat="45.32539" lon="5.83276">
        <ele>1334.49</ele>
        <time>2015-02-15T12:59:01Z</time>
      </trkpt>
      <trkpt lat="45.32555" lon="5.83261">
        <ele>1327.88</ele>
        <time>2015-02-15T13:03:34Z</time>
      </trkpt>
      <trkpt lat="45.32574" lon="5.83266">
        <ele>1314.3</ele>
        <time>2015-02-15T13:03:47Z</time>
      </trkpt>
      <trkpt lat="45.32596" lon="5.83265">
        <ele>1302.64</ele>
        <time>2015-02-15T13:03:56Z</time>
      </trkpt>
      <trkpt lat="45.32613" lon="5.8326">
        <ele>1299.81</ele>
        <time>2015-02-15T13:04:02Z</time>
      </trkpt>
      <trkpt lat="45.32631" lon="5.83269">
        <ele>1291.87</ele>
        <time>2015-02-15T13:04:09Z</time>
      </trkpt>
      <trkpt lat="45.32653" lon="5.83273">
        <ele>1277.86</ele>
        <time>2015-02-15T13:04:53Z</time>
      </trkpt>
      <trkpt lat="45.32672" lon="5.83274">
        <ele>1264.34</ele>
        <time>2015-02-15T13:05:02Z</time>
      </trkpt>
      <trkpt lat="45.32691" lon="5.83276">
        <ele>1247.77</ele>
        <time>2015-02-15T13:05:12Z</time>
      </trkpt>
      <trkpt lat="45.32709" lon="5.83292">
        <ele>1244.36</ele>
        <time>2015-02-15T13:05:18Z</time>
      </trkpt>
      <trkpt lat="45.32731" lon="5.8329">
        <ele>1242.13</ele>
        <time>2015-02-15T13:06:36Z</time>
      </trkpt>
      <trkpt lat="45.32757" lon="5.83299">
        <ele>1240.03</ele>
        <time>2015-02-15T13:06:39Z</time>
      </trkpt>
      <trkpt lat="45.32776" lon="5.83304">
        <ele>1234.52</ele>
        <time>2015-02-15T13:06:42Z</time>
      </trkpt>
      <trkpt lat="45.32796" lon="5.83295">
        <ele>1229.83</ele>
        <time>2015-02-15T13:06:45Z</time>
      </trkpt>
      <trkpt lat="45.32815" lon="5.83311">
        <ele>1228.37</ele>
        <time>2015-02-15T13:06:47Z</time>
      </trkpt>
      <trkpt lat="45.32831" lon="5.83299">
        <ele>1224.66</ele>
        <time>2015-02-15T13:06:51Z</time>
      </trkpt>
      <trkpt lat="45.32849" lon="5.83293">
        <ele>1215.18</ele>
        <time>2015-02-15T13:06:55Z</time>
      </trkpt>
      <trkpt lat="45.32867" lon="5.83285">
        <ele>1208.77</ele>
        <time>2015-02-15T13:06:59Z</time>
      </trkpt>
      <trkpt lat="45.32886" lon="5.83287">
        <ele>1207.03</ele>
        <time>2015-02-15T13:07:04Z</time>
      </trkpt>
      <trkpt lat="45.32901" lon="5.83269">
        <ele>1205.19</ele>
        <time>2015-02-15T13:07:10Z</time>
      </trkpt>
      <trkpt lat="45.32918" lon="5.83284">
        <ele>1192.13</ele>
        <time>2015-02-15T13:08:21Z</time>
      </trkpt>
      <trkpt lat="45.32926" lon="5.83307">
        <ele>1185.16</ele>
        <time>2015-02-15T13:08:24Z</time>
      </trkpt>
      <trkpt lat="45.32941" lon="5.83333">
        <ele>1182.96</ele>
        <time>2015-02-15T13:08:28Z</time>
      </trkpt>
      <trkpt lat="45.32952" lon="5.83309">
        <ele>1174.89</ele>
        <time>2015-02-15T13:08:31Z</time>
      </trkpt>
      <trkpt lat="45.32973" lon="5.83297">
        <ele>1172.48</ele>
        <time>2015-02-15T13:08:39Z</time>
      </trkpt>
      <trkpt lat="45.32995" lon="5.83289">
        <ele>1171.29</ele>
        <time>2015-02-15T13:08:43Z</time>
      </trkpt>
      <trkpt lat="45.33012" lon="5.833">
        <ele>1153.69</ele>
        <time>2015-02-15T13:09:15Z</time>
      </trkpt>
      <trkpt lat="45.3303" lon="5.83309">
        <ele>1147.63</ele>
        <time>2015-02-15T13:09:46Z</time>
      </trkpt>
      <trkpt lat="45.33045" lon="5.83331">
        <ele>1142.19</ele>
        <time>2015-02-15T13:10:56Z</time>
      </trkpt>
      <trkpt lat="45.33063" lon="5.83332">
        <ele>1134.52</ele>
        <time>2015-02-15T13:11:20Z</time>
      </trkpt>
      <trkpt lat="45.33083" lon="5.83343">
        <ele>1134.01</ele>
        <time>2015-02-15T13:11:32Z</time>
      </trkpt>
      <trkpt lat="45.33097" lon="5.83327">
        <ele>1128.8</ele>
        <time>2015-02-15T13:11:40Z</time>
      </trkpt>
      <trkpt lat="45.33118" lon="5.83331">
        <ele>1125.39</ele>
        <time>2015-02-15T13:12:24Z</time>
      </trkpt>
      <trkpt lat="45.33139" lon="5.83337">
        <ele>1119.77</ele>
        <time>2015-02-15T13:12:34Z</time>
      </trkpt>
      <trkpt lat="45.33155" lon="5.83351">
        <ele>1112.94</ele>
        <time>2015-02-15T13:13:08Z</time>
      </trkpt>
      <trkpt lat="45.33159" lon="5.8338">
        <ele>1105.94</ele>
        <time>2015-02-15T13:14:09Z</time>
      </trkpt>
      <trkpt lat="45.33175" lon="5.83392">
        <ele>1105.99</ele>
        <time>2015-02-15T13:14:16Z</time>
      </trkpt>
      <trkpt lat="45.33186" lon="5.83418">
        <ele>1102.64</ele>
        <time>2015-02-15T13:14:49Z</time>
      </trkpt>
      <trkpt lat="45.33203" lon="5.83431">
        <ele>1093.82</ele>
        <time>2015-02-15T13:15:09Z</time>
      </trkpt>
      <trkpt lat="45.33214" lon="5.83455">
        <ele>1076.76</ele>
        <time>2015-02-15T13:16:16Z</time>
      </trkpt>
      <trkpt lat="45.33232" lon="5.83465">
        <ele>1073.46</ele>
        <time>2015-02-15T13:16:23Z</time>
      </trkpt>
      <trkpt lat="45.33251" lon="5.83476">
        <ele>1073.35</ele>
        <time>2015-02-15T13:16:27Z</time>
      </trkpt>
      <trkpt lat="45.33269" lon="5.83473">
        <ele>1060.75</ele>
        <time>2015-02-15T13:16:58Z</time>
      </trkpt>
      <trkpt lat="45.33285" lon="5.83458">
        <ele>1051.48</ele>
        <time>2015-02-15T13:17:13Z</time>
      </trkpt>
      <trkpt lat="45.33299" lon="5.83481">
        <ele>1047.5</ele>
        <time>2015-02-15T13:18:15Z</time>
      </trkpt>
      <trkpt lat="45.33316" lon="5.83491">
        <ele>1038.77</ele>
        <time>2015-02-15T13:18:20Z</time>
      </trkpt>
      <trkpt lat="45.33335" lon="5.83503">
        <ele>1025.16</ele>
        <time>2015-02-15T13:18:27Z</time>
      </trkpt>
      <trkpt lat="45.33353" lon="5.83508">
        <ele>1027.65</ele>
        <time>2015-02-15T13:18:34Z</time>
      </trkpt>
      <trkpt lat="45.33372" lon="5.83512">
        <ele>1029.24</ele>
        <time>2015-02-15T13:18:38Z</time>
      </trkpt>
      <trkpt lat="45.33385" lon="5.8353">
        <ele>1023.09</ele>
        <time>2015-02-15T13:20:06Z</time>
      </trkpt>
      <trkpt lat="45.33402" lon="5.83544">
        <ele>1016.07</ele>
        <time>2015-02-15T13:20:12Z</time>
      </trkpt>
      <trkpt lat="45.33422" lon="5.8356">
        <ele>1011.83</ele>
        <time>2015-02-15T13:20:18Z</time>
      </trkpt>
      <trkpt lat="45.33435" lon="5.83582">
        <ele>1002.44</ele>
        <time>2015-02-15T13:20:46Z</time>
      </trkpt>
      <trkpt lat="45.33448" lon="5.83604">
        <ele>994.93</ele>
        <time>2015-02-15T13:20:55Z</time>
      </trkpt>
      <trkpt lat="45.33459" lon="5.83625">
        <ele>986.3</ele>
        <time>2015-02-15T13:21:05Z</time>
      </trkpt>
      <trkpt lat="45.33472" lon="5.83648">
        <ele>976.23</ele>
        <time>2015-02-15T13:21:11Z</time>
      </trkpt>
      <trkpt lat="45.3349" lon="5.8365">
        <ele>964.7</ele>
        <time>2015-02-15T13:21:27Z</time>
      </trkpt>
      <trkpt lat="45.33509" lon="5.83648">
        <ele>960.25</ele>
        <time>2015-02-15T13:22:09Z</time>
      </trkpt>
      <trkpt lat="45.33525" lon="5.83634">
        <ele>951.53</ele>
        <time>2015-02-15T13:22:13Z</time>
      </trkpt>
      <trkpt lat="45.33543" lon="5.83634">
        <ele>941.13</ele>
        <time>2015-02-15T13:22:54Z</time>
      </trkpt>
      <trkpt lat="45.33552" lon="5.8361">
        <ele>940.83</ele>
        <time>2015-02-15T13:23:10Z</time>
      </trkpt>
      <trkpt lat="45.3356" lon="5.83585">
        <ele>940.87</ele>
        <time>2015-02-15T13:23:20Z</time>
      </trkpt>
      <trkpt lat="45.33568" lon="5.8356">
        <ele>943.28</ele>
        <time>2015-02-15T13:23:34Z</time>
      </trkpt>
      <trkpt lat="45.33576" lon="5.83537">
        <ele>944.89</ele>
        <time>2015-02-15T13:23:50Z</time>
      </trkpt>
      <trkpt lat="45.33583" lon="5.83513">
        <ele>942.87</ele>
        <time>2015-02-15T13:24:03Z</time>
      </trkpt>
      <trkpt lat="45.33591" lon="5.83488">
        <ele>941.38</ele>
        <time>2015-02-15T13:24:14Z</time>
      </trkpt>
      <trkpt lat="45.33592" lon="5.83462">
        <ele>939.68</ele>
        <time>2015-02-15T13:24:26Z</time>
      </trkpt>
      <trkpt lat="45.33586" lon="5.83437">
        <ele>941.63</ele>
        <time>2015-02-15T13:25:35Z</time>
      </trkpt>
      <trkpt lat="45.33587" lon="5.8341">
        <ele>937.02</ele>
        <time>2015-02-15T13:25:48Z</time>
      </trkpt>
      <trkpt lat="45.33597" lon="5.83387">
        <ele>935.65</ele>
        <time>2015-02-15T13:26:00Z</time>
      </trkpt>
      <trkpt lat="45.33598" lon="5.83361">
        <ele>933.13</ele>
        <time>2015-02-15T13:26:38Z</time>
      </trkpt>
      <trkpt lat="45.33603" lon="5.83336">
        <ele>931.52</ele>
        <time>2015-02-15T13:26:59Z</time>
      </trkpt>
      <trkpt lat="45.33605" lon="5.8331">
        <ele>933.31</ele>
        <time>2015-02-15T13:29:31Z</time>
      </trkpt>
      <trkpt lat="45.33609" lon="5.83285">
        <ele>933.79</ele>
        <time>2015-02-15T13:29:53Z</time>
      </trkpt>
      <trkpt lat="45.33613" lon="5.83259">
        <ele>931.47</ele>
        <time>2015-02-15T13:30:26Z</time>
      </trkpt>
      <trkpt lat="45.33618" lon="5.83233">
        <ele>927.26</ele>
        <time>2015-02-15T13:30:37Z</time>
      </trkpt>
      <trkpt lat="45.33622" lon="5.83208">
        <ele>925.88</ele>
        <time>2015-02-15T13:30:49Z</time>
      </trkpt>
      <trkpt lat="45.33627" lon="5.83183">
        <ele>923.75</ele>
        <time>2015-02-15T13:31:02Z</time>
      </trkpt>
      <trkpt lat="45.33632" lon="5.83157">
        <ele>921.78</ele>
        <time>2015-02-15T13:31:15Z</time>
      </trkpt>
      <trkpt lat="45.33639" lon="5.83133">
        <ele>918.88</ele>
        <time>2015-02-15T13:31:31Z</time>
      </trkpt>
      <trkpt lat="45.33643" lon="5.83108">
        <ele>919.99</ele>
        <time>2015-02-15T13:31:43Z</time>
      </trkpt>
      <trkpt lat="45.33653" lon="5.83079">
        <ele>920.88</ele>
        <time>2015-02-15T13:31:53Z</time>
      </trkpt>
      <trkpt lat="45.3365" lon="5.83049">
        <ele>922.75</ele>
        <time>2015-02-15T13:31:57Z</time>
      </trkpt>
      <trkpt lat="45.33657" lon="5.83022">
        <ele>918.5</ele>
        <time>2015-02-15T13:32:03Z</time>
      </trkpt>
      <trkpt lat="45.33668" lon="5.83">
        <ele>915.83</ele>
        <time>2015-02-15T13:33:16Z</time>
      </trkpt>
      <trkpt lat="45.33673" lon="5.82974">
        <ele>912.11</ele>
        <time>2015-02-15T13:33:37Z</time>
      </trkpt>
      <trkpt lat="45.3368" lon="5.8295">
        <ele>903.38</ele>
        <time>2015-02-15T13:33:52Z</time>
      </trkpt>
      <trkpt lat="45.33686" lon="5.82926">
        <ele>905.9</ele>
        <time>2015-02-15T13:34:07Z</time>
      </trkpt>
      <trkpt lat="45.33694" lon="5.82902">
        <ele>913.56</ele>
        <time>2015-02-15T13:34:23Z</time>
      </trkpt>
      <trkpt lat="45.33704" lon="5.82878">
        <ele>911.95</ele>
        <time>2015-02-15T13:34:37Z</time>
      </trkpt>
      <trkpt lat="45.33717" lon="5.8286">
        <ele>914.01</ele>
        <time>2015-02-15T13:34:52Z</time>
      </trkpt>
      <trkpt lat="45.33732" lon="5.82843">
        <ele>914.13</ele>
        <time>2015-02-15T13:35:10Z</time>
      </trkpt>
      <trkpt lat="45.33745" lon="5.82825">
        <ele>913.62</ele>
        <time>2015-02-15T13:36:09Z</time>
      </trkpt>
      <trkpt lat="45.33753" lon="5.82801">
        <ele>914.6</ele>
        <time>2015-02-15T13:36:27Z</time>
      </trkpt>
      <trkpt lat="45.33755" lon="5.82775">
        <ele>919.32</ele>
        <time>2015-02-15T13:36:46Z</time>
      </trkpt>
      <trkpt lat="45.3376" lon="5.8275">
        <ele>920.9</ele>
        <time>2015-02-15T13:37:06Z</time>
      </trkpt>
      <trkpt lat="45.33754" lon="5.82722">
        <ele>926.62</ele>
        <time>2015-02-15T13:37:25Z</time>
      </trkpt>
      <trkpt lat="45.33745" lon="5.82699">
        <ele>936.83</ele>
        <time>2015-02-15T13:37:47Z</time>
      </trkpt>
      <trkpt lat="45.33756" lon="5.82678">
        <ele>934.69</ele>
        <time>2015-02-15T13:38:06Z</time>
      </trkpt>
      <trkpt lat="45.33765" lon="5.82655">
        <ele>940.93</ele>
        <time>2015-02-15T13:38:21Z</time>
      </trkpt>
      <trkpt lat="45.33765" lon="5.82629">
        <ele>931.43</ele>
        <time>2015-02-15T13:38:43Z</time>
      </trkpt>
      <trkpt lat="45.33757" lon="5.82606">
        <ele>920.14</ele>
        <time>2015-02-15T13:39:05Z</time>
      </trkpt>
      <trkpt lat="45.33764" lon="5.82581">
        <ele>935.75</ele>
        <time>2015-02-15T13:39:30Z</time>
      </trkpt>
      <trkpt lat="45.33773" lon="5.82555">
        <ele>924.93</ele>
        <time>2015-02-15T13:39:55Z</time>
      </trkpt>
      <trkpt lat="45.33763" lon="5.82533">
        <ele>918.87</ele>
        <time>2015-02-15T13:40:12Z</time>
      </trkpt>
      <trkpt lat="45.3376" lon="5.82507">
        <ele>903.89</ele>
        <time>2015-02-15T13:40:34Z</time>
      </trkpt>
      <trkpt lat="45.33768" lon="5.82484">
        <ele>907.77</ele>
        <time>2015-02-15T13:40:54Z</time>
      </trkpt>
      <trkpt lat="45.33753" lon="5.82462">
        <ele>906.45</ele>
        <time>2015-02-15T13:41:16Z</time>
      </trkpt>
      <trkpt lat="45.33756" lon="5.82436">
        <ele>896.96</ele>
        <time>2015-02-15T13:41:30Z</time>
      </trkpt>
      <trkpt lat="45.33753" lon="5.82407">
        <ele>895.67</ele>
        <time>2015-02-15T13:41:41Z</time>
      </trkpt>
      <trkpt lat="45.33752" lon="5.8238">
        <ele>902.72</ele>
        <time>2015-02-15T13:41:53Z</time>
      </trkpt>
      <trkpt lat="45.33754" lon="5.82354">
        <ele>923.64</ele>
        <time>2015-02-15T13:42:10Z</time>
      </trkpt>
      <trkpt lat="45.33761" lon="5.8233">
        <ele>932.75</ele>
        <time>2015-02-15T13:42:41Z</time>
      </trkpt>
      <trkpt lat="45.33763" lon="5.82304">
        <ele>907.42</ele>
        <time>2015-02-15T13:43:07Z</time>
      </trkpt>
      <trkpt lat="45.33767" lon="5.82278">
        <ele>904.7</ele>
        <time>2015-02-15T13:43:25Z</time>
      </trkpt>
      <trkpt lat="45.33768" lon="5.82252">
        <ele>911.29</ele>
        <time>2015-02-15T13:43:40Z</time>
      </trkpt>
      <trkpt lat="45.33773" lon="5.82225">
        <ele>916.44</ele>
        <time>2015-02-15T13:43:57Z</time>
      </trkpt>
      <trkpt lat="45.33774" lon="5.822">
        <ele>921.91</ele>
        <time>2015-02-15T13:44:11Z</time>
      </trkpt>
      <trkpt lat="45.33779" lon="5.82174">
        <ele>934.95</ele>
        <time>2015-02-15T13:44:55Z</time>
      </trkpt>
      <trkpt lat="45.33782" lon="5.82148">
        <ele>937.3</ele>
        <time>2015-02-15T13:45:19Z</time>
      </trkpt>
      <trkpt lat="45.33781" lon="5.82121">
        <ele>930.42</ele>
        <time>2015-02-15T13:45:33Z</time>
      </trkpt>
      <trkpt lat="45.33775" lon="5.82095">
        <ele>937.28</ele>
        <time>2015-02-15T13:45:45Z</time>
      </trkpt>
      <trkpt lat="45.33772" lon="5.82068">
        <ele>936.31</ele>
        <time>2015-02-15T13:46:05Z</time>
      </trkpt>
      <trkpt lat="45.33771" lon="5.82041">
        <ele>933.38</ele>
        <time>2015-02-15T13:46:27Z</time>
      </trkpt>
      <trkpt lat="45.33764" lon="5.82016">
        <ele>940.95</ele>
        <time>2015-02-15T13:46:39Z</time>
      </trkpt>
      <trkpt lat="45.33749" lon="5.82">
        <ele>938.58</ele>
        <time>2015-02-15T13:46:53Z</time>
      </trkpt>
      <trkpt lat="45.3373" lon="5.81997">
        <ele>945.42</ele>
        <time>2015-02-15T13:47:09Z</time>
      </trkpt>
      <trkpt lat="45.33711" lon="5.81992">
        <ele>948.54</ele>
        <time>2015-02-15T13:47:25Z</time>
      </trkpt>
      <trkpt lat="45.33703" lon="5.81969">
        <ele>935.68</ele>
        <time>2015-02-15T13:47:44Z</time>
      </trkpt>
      <trkpt lat="45.33697" lon="5.81944">
        <ele>935.26</ele>
        <time>2015-02-15T13:48:02Z</time>
      </trkpt>
      <trkpt lat="45.33701" lon="5.81918">
        <ele>930.68</ele>
        <time>2015-02-15T13:48:26Z</time>
      </trkpt>
      <trkpt lat="45.33702" lon="5.81892">
        <ele>922.4</ele>
        <time>2015-02-15T13:48:46Z</time>
      </trkpt>
      <trkpt lat="45.33706" lon="5.81866">
        <ele>922.77</ele>
        <time>2015-02-15T13:49:03Z</time>
      </trkpt>
      <trkpt lat="45.33714" lon="5.81843">
        <ele>923.66</ele>
        <time>2015-02-15T13:49:19Z</time>
      </trkpt>
      <trkpt lat="45.33718" lon="5.81816">
        <ele>926.44</ele>
        <time>2015-02-15T13:49:32Z</time>
      </trkpt>
      <trkpt lat="45.33721" lon="5.8179">
        <ele>923.86</ele>
        <time>2015-02-15T13:49:49Z</time>
      </trkpt>
      <trkpt lat="45.33718" lon="5.81764">
        <ele>925.6</ele>
        <time>2015-02-15T13:50:00Z</time>
      </trkpt>
      <trkpt lat="45.33716" lon="5.81737">
        <ele>931.3</ele>
        <time>2015-02-15T13:50:12Z</time>
      </trkpt>
      <trkpt lat="45.33716" lon="5.81711">
        <ele>930.11</ele>
        <time>2015-02-15T13:50:26Z</time>
      </trkpt>
      <trkpt lat="45.33715" lon="5.81684">
        <ele>926.81</ele>
        <time>2015-02-15T13:50:45Z</time>
      </trkpt>
      <trkpt lat="45.33723" lon="5.81657">
        <ele>929.13</ele>
        <time>2015-02-15T13:51:01Z</time>
      </trkpt>
      <trkpt lat="45.33721" lon="5.81632">
        <ele>930.81</ele>
        <time>2015-02-15T13:51:13Z</time>
      </trkpt>
      <trkpt lat="45.33723" lon="5.81605">
        <ele>932.85</ele>
        <time>2015-02-15T13:51:28Z</time>
      </trkpt>
      <trkpt lat="45.33723" lon="5.81579">
        <ele>934.51</ele>
        <time>2015-02-15T13:51:41Z</time>
      </trkpt>
      <trkpt lat="45.33726" lon="5.81552">
        <ele>932.93</ele>
        <time>2015-02-15T13:51:59Z</time>
      </trkpt>
      <trkpt lat="45.33725" lon="5.81526">
        <ele>936.21</ele>
        <time>2015-02-15T13:52:11Z</time>
      </trkpt>
      <trkpt lat="45.33726" lon="5.815">
        <ele>933.22</ele>
        <time>2015-02-15T13:52:29Z</time>
      </trkpt>
      <trkpt lat="45.33722" lon="5.81474">
        <ele>931.17</ele>
        <time>2015-02-15T13:52:44Z</time>
      </trkpt>
      <trkpt lat="45.33722" lon="5.81446">
        <ele>930.01</ele>
        <time>2015-02-15T13:53:04Z</time>
      </trkpt>
      <trkpt lat="45.33725" lon="5.81419">
        <ele>925.45</ele>
        <time>2015-02-15T13:53:24Z</time>
      </trkpt>
      <trkpt lat="45.33721" lon="5.81393">
        <ele>925.87</ele>
        <time>2015-02-15T13:53:39Z</time>
      </trkpt>
      <trkpt lat="45.33717" lon="5.81368">
        <ele>923.89</ele>
        <time>2015-02-15T13:53:58Z</time>
      </trkpt>
      <trkpt lat="45.33708" lon="5.81344">
        <ele>923.91</ele>
        <time>2015-02-15T13:54:11Z</time>
      </trkpt>
      <trkpt lat="45.33695" lon="5.81326">
        <ele>924.7</ele>
        <time>2015-02-15T13:54:27Z</time>
      </trkpt>
      <trkpt lat="45.33679" lon="5.81311">
        <ele>923.88</ele>
        <time>2015-02-15T13:54:45Z</time>
      </trkpt>
      <trkpt lat="45.33662" lon="5.81299">
        <ele>921.44</ele>
        <time>2015-02-15T13:55:01Z</time>
      </trkpt>
      <trkpt lat="45.33644" lon="5.81294">
        <ele>922.22</ele>
        <time>2015-02-15T13:55:17Z</time>
      </trkpt>
      <trkpt lat="45.33627" lon="5.81303">
        <ele>925.77</ele>
        <time>2015-02-15T13:55:34Z</time>
      </trkpt>
      <trkpt lat="45.33618" lon="5.81326">
        <ele>934.93</ele>
        <time>2015-02-15T13:55:50Z</time>
      </trkpt>
      <trkpt lat="45.33611" lon="5.81351">
        <ele>926.91</ele>
        <time>2015-02-15T13:56:11Z</time>
      </trkpt>
      <trkpt lat="45.33601" lon="5.81372">
        <ele>928.68</ele>
        <time>2015-02-15T13:56:24Z</time>
      </trkpt>
    </trkseg>
  </trk>
</gpx>